createdAt,value
2022-10-17T00:00:01.025Z,8.13
2022-10-17T00:01:51.396Z,8.57
2022-10-17T00:03:41.666Z,8.55
2022-10-17T00:05:31.986Z,8.55
2022-10-17T00:07:22.188Z,8.73
2022-10-17T00:09:12.937Z,9.15
2022-10-17T00:11:05.819Z,8.85
2022-10-17T00:12:56.200Z,8.65
2022-10-17T00:14:46.698Z,10.60
2022-10-17T00:16:38.486Z,9.20
2022-10-17T00:18:28.829Z,9.98
2022-10-17T00:20:19.576Z,9.50
2022-10-17T00:22:09.938Z,10.40
2022-10-17T00:24:01.047Z,10.02
2022-10-17T00:25:58.647Z,10.07
2022-10-17T00:27:49.298Z,11.98
2022-10-17T00:29:40.228Z,10.10
2022-10-17T00:31:30.708Z,10.43
2022-10-17T00:33:22.765Z,11.15
2022-10-17T00:35:13.306Z,12.50
2022-10-17T00:37:03.566Z,11.68
2022-10-17T00:38:56.666Z,11.10
2022-10-17T00:40:47.592Z,11.73
2022-10-17T00:42:38.012Z,13.90
2022-10-17T00:45:05.536Z,13.35
2022-10-17T00:46:56.796Z,12.13
2022-10-17T00:48:49.105Z,12.27
2022-10-17T00:50:41.490Z,13.68
2022-10-17T00:52:32.420Z,12.90
2022-10-17T00:54:25.560Z,13.00
2022-10-17T00:56:16.593Z,13.85
2022-10-17T00:58:07.109Z,14.23
2022-10-17T00:59:58.456Z,13.50
2022-10-17T01:01:53.551Z,13.73
2022-10-17T01:03:44.261Z,13.60
2022-10-17T01:05:36.133Z,14.25
2022-10-17T01:07:27.596Z,14.25
2022-10-17T01:09:18.107Z,15.70
2022-10-17T01:11:17.548Z,15.38
2022-10-17T01:13:13.391Z,14.77
2022-10-17T01:15:11.224Z,14.55
2022-10-17T01:17:05.967Z,13.45
2022-10-17T01:19:03.265Z,14.63
2022-10-17T01:21:31.808Z,15.32
2022-10-17T01:23:38.992Z,14.43
2022-10-17T01:25:34.732Z,13.52
2022-10-17T01:27:43.988Z,13.60
2022-10-17T01:29:46.169Z,14.10
2022-10-17T01:31:41.159Z,13.95
2022-10-17T01:33:41.254Z,15.75
2022-10-17T01:35:37.824Z,15.15
2022-10-17T01:37:30.703Z,15.25
2022-10-17T01:39:26.892Z,16.92
2022-10-17T01:41:27.598Z,15.32
2022-10-17T01:43:22.999Z,14.68
2022-10-17T01:45:16.508Z,18.05
2022-10-17T01:47:10.189Z,16.67
2022-10-17T01:49:02.108Z,17.00
2022-10-17T01:50:54.583Z,15.50
2022-10-17T01:52:47.976Z,14.45
2022-10-17T01:54:41.032Z,16.27
2022-10-17T01:56:32.786Z,15.07
2022-10-17T01:58:26.873Z,15.63
2022-10-17T02:00:21.140Z,17.02
2022-10-17T02:02:15.165Z,16.80
2022-10-17T02:04:07.750Z,15.70
2022-10-17T02:05:58.644Z,16.35
2022-10-17T02:07:50.336Z,16.35
2022-10-17T02:09:40.688Z,14.65
2022-10-17T02:11:31.361Z,14.90
2022-10-17T02:13:31.447Z,16.27
2022-10-17T02:15:39.424Z,16.92
2022-10-17T02:17:41.637Z,16.85
2022-10-17T02:19:39.286Z,16.20
2022-10-17T02:21:35.751Z,16.02
2022-10-17T02:23:30.659Z,16.23
2022-10-17T02:25:27.660Z,15.68
2022-10-17T02:27:25.586Z,16.65
2022-10-17T02:29:19.063Z,16.17
2022-10-17T02:31:14.187Z,16.85
2022-10-17T02:33:09.492Z,15.77
2022-10-17T02:35:02.233Z,17.75
2022-10-17T02:37:00.116Z,17.75
2022-10-17T02:38:51.104Z,16.33
2022-10-17T02:40:42.074Z,16.80
2022-10-17T02:42:33.395Z,16.17
2022-10-17T02:44:25.108Z,15.77
2022-10-17T02:46:18.554Z,17.23
2022-10-17T02:48:14.783Z,16.45
2022-10-17T02:50:07.370Z,16.95
2022-10-17T02:53:59.228Z,15.38
2022-10-17T02:55:53.691Z,14.25
2022-10-17T02:57:47.437Z,14.88
2022-10-17T02:59:38.882Z,15.15
2022-10-17T03:01:29.705Z,15.17
2022-10-17T03:03:23.566Z,14.45
2022-10-17T03:05:15.979Z,14.73
2022-10-17T03:08:56.856Z,13.50
2022-10-17T03:10:47.531Z,13.90
2022-10-17T03:12:37.938Z,13.25
2022-10-17T03:14:28.260Z,13.27
2022-10-17T03:16:18.977Z,12.75
2022-10-17T03:18:09.272Z,13.32
2022-10-17T03:20:00.845Z,12.88
2022-10-17T03:21:51.463Z,12.10
2022-10-17T03:23:42.103Z,12.55
2022-10-17T03:25:32.432Z,12.93
2022-10-17T03:27:22.806Z,12.25
2022-10-17T03:29:13.913Z,11.60
2022-10-17T03:31:08.612Z,11.75
2022-10-17T03:32:59.488Z,11.25
2022-10-17T03:34:49.960Z,11.73
2022-10-17T03:36:41.791Z,12.23
2022-10-17T03:38:32.161Z,11.80
2022-10-17T03:40:22.503Z,11.65
2022-10-17T03:42:12.953Z,11.73
2022-10-17T03:44:03.401Z,12.50
2022-10-17T03:45:54.388Z,13.40
2022-10-17T03:47:45.140Z,12.23
2022-10-17T03:49:35.389Z,12.05
2022-10-17T03:51:25.971Z,12.13
2022-10-17T03:53:17.869Z,12.68
2022-10-17T03:55:08.489Z,12.98
2022-10-17T03:56:59.089Z,13.85
2022-10-17T03:58:49.403Z,11.85
2022-10-17T04:00:39.720Z,12.40
2022-10-17T04:02:29.946Z,12.52
2022-10-17T04:04:21.939Z,12.30
2022-10-17T04:06:13.090Z,12.45
2022-10-17T04:08:04.960Z,13.93
2022-10-17T04:09:56.897Z,12.77
2022-10-17T04:11:47.474Z,11.75
2022-10-17T04:13:37.839Z,12.05
2022-10-17T04:15:28.603Z,12.48
2022-10-17T04:17:19.125Z,12.60
2022-10-17T04:19:13.135Z,11.05
2022-10-17T04:21:04.134Z,12.10
2022-10-17T04:22:54.721Z,11.63
2022-10-17T04:24:45.728Z,11.13
2022-10-17T04:26:37.816Z,11.95
2022-10-17T04:28:28.566Z,11.77
2022-10-17T04:30:19.492Z,11.57
2022-10-17T04:32:09.935Z,11.18
2022-10-17T04:34:00.219Z,11.25
2022-10-17T04:35:56.511Z,11.75
2022-10-17T04:37:47.213Z,10.90
2022-10-17T04:39:37.861Z,11.30
2022-10-17T04:41:28.436Z,10.13
2022-10-17T04:43:20.617Z,9.70
2022-10-17T04:45:11.303Z,10.63
2022-10-17T04:47:01.892Z,9.70
2022-10-17T04:48:53.436Z,10.07
2022-10-17T04:50:53.576Z,10.77
2022-10-17T04:52:44.181Z,9.88
2022-10-17T04:54:34.737Z,9.55
2022-10-17T04:56:25.831Z,9.52
2022-10-17T04:58:17.449Z,9.25
2022-10-17T05:00:11.151Z,9.93
2022-10-17T05:02:01.758Z,9.15
2022-10-17T05:03:52.742Z,9.68
2022-10-17T05:05:43.411Z,9.23
2022-10-17T05:07:33.851Z,9.18
2022-10-17T05:09:24.826Z,9.15
2022-10-17T05:11:20.936Z,10.25
2022-10-17T05:13:12.139Z,9.75
2022-10-17T05:15:02.804Z,9.73
2022-10-17T05:16:54.461Z,9.00
2022-10-17T05:18:50.638Z,9.13
2022-10-17T05:20:43.304Z,9.55
2022-10-17T05:22:36.163Z,8.93
2022-10-17T05:24:28.726Z,9.40
2022-10-17T05:26:19.373Z,9.25
2022-10-17T05:28:09.986Z,10.40
2022-10-17T05:30:01.437Z,9.88
2022-10-17T05:31:51.750Z,9.43
2022-10-17T05:33:43.947Z,10.23
2022-10-17T05:37:25.117Z,9.05
2022-10-17T05:39:15.697Z,9.70
2022-10-17T05:41:06.670Z,10.25
2022-10-17T05:42:57.027Z,9.35
2022-10-17T05:44:47.564Z,10.13
2022-10-17T05:46:37.937Z,9.60
2022-10-17T05:48:28.469Z,9.73
2022-10-17T05:50:20.012Z,9.80
2022-10-17T05:52:10.263Z,10.55
2022-10-17T05:54:00.803Z,9.73
2022-10-17T05:55:56.581Z,10.40
2022-10-17T05:57:46.818Z,10.10
2022-10-17T05:59:37.323Z,10.05
2022-10-17T06:01:28.253Z,10.88
2022-10-17T06:03:18.459Z,11.57
2022-10-17T06:05:09.494Z,10.32
2022-10-17T06:07:01.069Z,10.15
2022-10-17T06:08:51.755Z,9.60
2022-10-17T06:10:42.190Z,10.93
2022-10-17T06:12:33.097Z,11.38
2022-10-17T06:14:23.679Z,9.52
2022-10-17T06:16:14.123Z,10.52
2022-10-17T06:18:04.580Z,10.32
2022-10-17T06:19:55.069Z,9.82
2022-10-17T06:21:45.427Z,10.48
2022-10-17T06:23:37.085Z,10.85
2022-10-17T06:25:27.652Z,10.55
2022-10-17T06:27:18.353Z,10.43
2022-10-17T06:29:10.638Z,10.38
2022-10-17T06:31:04.931Z,10.73
2022-10-17T06:32:55.469Z,10.50
2022-10-17T06:34:45.812Z,11.77
2022-10-17T06:36:35.832Z,11.43
2022-10-17T06:38:26.309Z,12.70
2022-10-17T06:40:18.092Z,13.18
2022-10-17T06:42:08.611Z,11.35
2022-10-17T06:43:59.211Z,11.30
2022-10-17T06:45:49.674Z,12.15
2022-10-17T06:47:40.194Z,11.40
2022-10-17T06:49:30.907Z,13.68
2022-10-17T06:51:21.164Z,11.68
2022-10-17T06:53:11.552Z,12.63
2022-10-17T06:56:54.572Z,11.45
2022-10-17T06:58:44.842Z,12.38
2022-10-17T07:00:35.455Z,12.45
2022-10-17T07:02:26.323Z,13.48
2022-10-17T07:04:16.861Z,13.27
2022-10-17T07:06:07.405Z,12.57
2022-10-17T07:07:58.320Z,12.25
2022-10-17T07:09:49.320Z,13.15
2022-10-17T07:11:40.092Z,13.07
2022-10-17T07:13:34.462Z,11.90
2022-10-17T07:15:28.932Z,12.57
2022-10-17T07:17:19.740Z,13.27
2022-10-17T07:19:10.523Z,12.80
2022-10-17T07:21:01.501Z,13.00
2022-10-17T07:22:52.208Z,12.70
2022-10-17T07:24:42.852Z,12.80
2022-10-17T07:26:33.594Z,12.88
2022-10-17T07:28:24.348Z,12.98
2022-10-17T07:30:16.449Z,12.40
2022-10-17T07:32:06.757Z,13.60
2022-10-17T07:33:58.948Z,12.88
2022-10-17T07:35:49.235Z,11.95
2022-10-17T07:37:40.162Z,12.77
2022-10-17T07:39:30.741Z,13.77
2022-10-17T07:41:21.936Z,13.38
2022-10-17T07:43:12.295Z,13.23
2022-10-17T07:45:02.939Z,14.43
2022-10-17T07:46:54.861Z,14.27
2022-10-17T07:48:45.687Z,14.32
2022-10-17T07:50:36.376Z,12.68
2022-10-17T07:52:26.943Z,14.25
2022-10-17T07:54:17.319Z,14.57
2022-10-17T07:56:09.191Z,14.68
2022-10-17T07:57:59.823Z,14.60
2022-10-17T07:59:50.260Z,16.00
2022-10-17T08:01:40.521Z,14.30
2022-10-17T08:03:32.488Z,15.45
2022-10-17T08:07:21.731Z,14.73
2022-10-17T08:09:15.140Z,15.18
2022-10-17T08:11:07.346Z,14.32
2022-10-17T08:12:58.449Z,16.35
2022-10-17T08:14:48.965Z,15.20
2022-10-17T08:16:39.604Z,14.85
2022-10-17T08:18:31.509Z,15.02
2022-10-17T08:20:22.217Z,13.18
2022-10-17T08:22:13.117Z,14.73
2022-10-17T08:24:04.041Z,15.13
2022-10-17T08:25:54.484Z,14.50
2022-10-17T08:27:45.104Z,15.18
2022-10-17T08:29:35.462Z,16.50
2022-10-17T08:31:25.804Z,15.77
2022-10-17T08:33:16.245Z,16.27
2022-10-17T08:35:08.729Z,16.02
2022-10-17T08:36:59.154Z,16.25
2022-10-17T08:38:52.827Z,17.05
2022-10-17T08:40:43.651Z,16.20
2022-10-17T08:42:50.217Z,17.70
2022-10-17T08:44:49.341Z,18.23
2022-10-17T08:46:42.438Z,17.75
2022-10-17T08:48:36.086Z,18.33
2022-10-17T08:50:32.580Z,18.05
2022-10-17T08:52:28.175Z,21.67
2022-10-17T08:54:21.104Z,18.70
2022-10-17T08:56:19.917Z,21.67
2022-10-17T08:58:17.790Z,18.98
2022-10-17T09:00:15.197Z,19.20
2022-10-17T09:02:20.488Z,18.55
2022-10-17T09:06:31.876Z,19.95
2022-10-17T09:08:32.476Z,19.83
2022-10-17T09:10:30.063Z,18.42
2022-10-17T09:12:23.778Z,19.83
2022-10-17T09:14:26.621Z,17.67
2022-10-17T09:16:36.653Z,20.55
2022-10-17T09:18:29.514Z,18.92
2022-10-17T09:20:22.466Z,17.52
2022-10-17T09:22:18.836Z,17.30
2022-10-17T09:24:16.250Z,16.75
2022-10-17T09:26:10.413Z,17.55
2022-10-17T09:28:06.481Z,18.40
2022-10-17T09:30:40.497Z,17.80
2022-10-17T09:32:32.870Z,17.42
2022-10-17T09:34:26.666Z,18.20
2022-10-17T09:36:20.709Z,15.63
2022-10-17T09:38:18.353Z,14.68
2022-10-17T09:40:21.494Z,13.63
2022-10-17T09:42:13.607Z,15.43
2022-10-17T09:44:17.014Z,15.45
2022-10-17T09:46:12.973Z,15.35
2022-10-17T09:48:10.057Z,16.85
2022-10-17T09:50:01.756Z,15.50
2022-10-17T09:51:52.487Z,17.13
2022-10-17T09:53:46.935Z,16.48
2022-10-17T09:55:40.669Z,17.77
2022-10-17T09:57:51.753Z,18.17
2022-10-17T09:59:44.263Z,17.70
2022-10-17T10:01:34.500Z,17.65
2022-10-17T10:03:25.813Z,17.10
2022-10-17T10:05:17.856Z,17.52
2022-10-17T10:07:12.003Z,15.60
2022-10-17T10:09:04.876Z,15.93
2022-10-17T10:10:59.253Z,14.00
2022-10-17T10:13:03.609Z,16.60
2022-10-17T10:14:55.404Z,17.50
2022-10-17T10:18:37.632Z,12.77
2022-10-17T10:20:32.031Z,10.35
2022-10-17T10:22:23.561Z,8.98
2022-10-17T10:24:15.620Z,9.15
2022-10-17T10:26:31.049Z,9.90
2022-10-17T10:28:25.293Z,10.13
2022-10-17T10:30:19.749Z,10.07
2022-10-17T10:34:22.537Z,12.90
2022-10-17T10:36:12.768Z,10.73
2022-10-17T10:38:08.540Z,10.15
2022-10-17T10:40:03.309Z,10.00
2022-10-17T10:41:53.661Z,10.90
2022-10-17T10:43:47.176Z,10.18
2022-10-17T10:45:48.007Z,10.38
2022-10-17T10:47:39.084Z,9.52
2022-10-17T10:49:30.818Z,9.05
2022-10-17T10:51:24.634Z,9.07
2022-10-17T10:53:29.871Z,6.13
2022-10-17T10:55:27.375Z,6.45
2022-10-17T10:57:20.356Z,3.53
2022-10-17T10:59:17.638Z,3.63
2022-10-17T11:01:14.236Z,4.38
2022-10-17T11:03:12.895Z,4.82
2022-10-17T11:05:06.145Z,4.10
2022-10-17T11:07:02.136Z,4.68
2022-10-17T11:09:04.149Z,4.10
2022-10-17T11:11:06.955Z,4.07
2022-10-17T11:13:01.491Z,4.57
2022-10-17T11:14:56.064Z,4.65
2022-10-17T11:16:49.359Z,4.15
2022-10-17T11:18:44.229Z,4.32
2022-10-17T11:20:40.842Z,5.20
2022-10-17T11:22:33.145Z,5.97
2022-10-17T11:24:25.296Z,5.30
2022-10-17T11:26:20.841Z,4.85
2022-10-17T11:28:14.633Z,5.10
2022-10-17T11:30:05.960Z,6.07
2022-10-17T11:31:58.445Z,6.65
2022-10-17T11:33:52.191Z,6.25
2022-10-17T11:35:45.459Z,6.65
2022-10-17T11:37:40.884Z,7.30
2022-10-17T11:39:36.619Z,6.55
2022-10-17T11:41:34.153Z,7.97
2022-10-17T11:43:29.342Z,7.78
2022-10-17T11:45:22.340Z,8.13
2022-10-17T11:47:23.126Z,8.10
2022-10-17T11:49:20.117Z,7.93
2022-10-17T11:53:24.789Z,8.68
2022-10-17T11:55:19.525Z,8.68
2022-10-17T11:57:21.221Z,9.80
2022-10-17T11:59:38.825Z,10.07
2022-10-17T12:01:38.072Z,9.15
2022-10-17T12:03:52.525Z,9.57
2022-10-17T12:05:48.520Z,9.27
2022-10-17T12:07:45.522Z,9.15
2022-10-17T12:09:41.984Z,8.23
2022-10-17T12:11:40.676Z,6.35
2022-10-17T12:13:54.923Z,5.97
2022-10-17T12:15:46.722Z,6.30
2022-10-17T12:17:46.125Z,4.75
2022-10-17T12:19:39.227Z,4.43
2022-10-17T12:21:56.896Z,4.10
2022-10-17T12:23:52.120Z,4.63
2022-10-17T12:25:49.682Z,4.63
2022-10-17T12:27:42.337Z,4.28
2022-10-17T12:29:34.080Z,4.53
2022-10-17T12:31:29.613Z,4.63
2022-10-17T12:33:28.096Z,4.95
2022-10-17T12:35:21.127Z,5.43
2022-10-17T12:37:11.625Z,4.60
2022-10-17T12:39:46.642Z,5.65
2022-10-17T12:41:55.594Z,4.82
2022-10-17T12:45:48.144Z,5.47
2022-10-17T12:47:38.849Z,5.18
2022-10-17T12:49:47.075Z,5.07
2022-10-17T12:52:10.897Z,5.40
2022-10-17T12:54:08.102Z,5.68
2022-10-17T12:56:00.056Z,5.18
2022-10-17T12:57:56.592Z,5.10
2022-10-17T12:59:47.881Z,5.13
2022-10-17T13:01:40.148Z,5.65
2022-10-17T13:03:32.669Z,5.30
2022-10-17T13:05:28.018Z,6.50
2022-10-17T13:07:20.553Z,5.60
2022-10-17T13:09:20.787Z,6.35
2022-10-17T13:11:11.738Z,5.65
2022-10-17T13:13:07.189Z,5.22
2022-10-17T13:14:59.966Z,5.20
2022-10-17T13:16:53.731Z,4.85
2022-10-17T13:18:52.607Z,5.47
2022-10-17T13:20:43.378Z,5.32
2022-10-17T13:22:33.849Z,4.90
2022-10-17T13:24:29.850Z,4.68
2022-10-17T13:26:22.151Z,5.00
2022-10-17T13:30:26.700Z,4.30
2022-10-17T13:32:21.925Z,4.82
2022-10-17T13:34:17.354Z,4.22
2022-10-17T13:36:08.493Z,4.53
2022-10-17T13:38:00.375Z,4.20
2022-10-17T13:41:58.408Z,3.85
2022-10-17T13:43:53.101Z,4.32
2022-10-17T13:45:52.287Z,3.50
2022-10-17T13:47:47.945Z,3.53
2022-10-17T13:49:42.163Z,4.22
2022-10-17T13:51:32.778Z,3.70
2022-10-17T13:53:31.443Z,3.75
2022-10-17T13:55:22.014Z,3.28
2022-10-17T13:57:19.682Z,3.67
2022-10-17T13:59:22.321Z,3.80
2022-10-17T14:01:13.939Z,3.70
2022-10-17T14:03:08.088Z,4.00
2022-10-17T14:05:19.533Z,4.07
2022-10-17T14:07:21.959Z,3.80
2022-10-17T14:09:18.575Z,3.88
2022-10-17T14:11:21.631Z,3.75
2022-10-17T14:13:21.026Z,3.70
2022-10-17T14:15:13.867Z,4.30
2022-10-17T14:17:13.244Z,3.80
2022-10-17T14:19:05.890Z,4.35
2022-10-17T14:21:34.022Z,4.05
2022-10-17T14:23:30.334Z,3.63
2022-10-17T14:25:28.356Z,3.20
2022-10-17T14:27:28.318Z,3.60
2022-10-17T14:29:23.271Z,3.63
2022-10-17T14:31:21.911Z,3.90
2022-10-17T14:33:16.149Z,3.70
2022-10-17T14:35:37.318Z,3.50
2022-10-17T14:37:39.548Z,3.75
2022-10-17T14:39:30.306Z,3.25
2022-10-17T14:43:35.554Z,3.08
2022-10-17T14:45:27.903Z,3.20
2022-10-17T14:49:36.380Z,3.47
2022-10-17T14:51:32.559Z,3.25
2022-10-17T14:53:30.556Z,2.80
2022-10-17T14:55:24.019Z,3.22
2022-10-17T14:57:17.862Z,3.60
2022-10-17T14:59:12.025Z,3.42
2022-10-17T15:01:06.283Z,3.25
2022-10-17T15:02:57.123Z,3.47
2022-10-17T15:04:47.785Z,3.05
2022-10-17T15:06:39.388Z,3.20
2022-10-17T15:08:30.201Z,3.72
2022-10-17T15:10:27.469Z,3.35
2022-10-17T15:12:19.522Z,4.10
2022-10-17T15:14:10.041Z,4.00
2022-10-17T15:16:00.372Z,3.30
2022-10-17T15:17:50.837Z,3.63
2022-10-17T15:19:41.937Z,3.75
2022-10-17T15:21:44.656Z,3.30
2022-10-17T15:23:38.821Z,3.67
2022-10-17T15:25:31.571Z,3.63
2022-10-17T15:29:15.339Z,3.65
2022-10-17T15:31:05.881Z,3.40
2022-10-17T15:32:56.839Z,3.63
2022-10-17T15:34:47.274Z,3.83
2022-10-17T15:36:40.208Z,3.97
2022-10-17T15:38:31.511Z,3.63
2022-10-17T15:40:24.533Z,4.00
2022-10-17T15:42:15.205Z,3.70
2022-10-17T15:44:05.822Z,3.88
2022-10-17T15:45:56.661Z,3.80
2022-10-17T15:47:51.329Z,3.15
2022-10-17T15:49:43.716Z,3.63
2022-10-17T15:51:34.469Z,3.42
2022-10-17T15:53:26.338Z,3.53
2022-10-17T15:55:17.521Z,3.42
2022-10-17T15:57:14.337Z,3.78
2022-10-17T15:59:06.687Z,3.53
2022-10-17T16:02:48.433Z,2.90
2022-10-17T16:04:40.266Z,2.78
2022-10-17T16:06:30.939Z,3.60
2022-10-17T16:08:21.687Z,3.08
2022-10-17T16:10:12.397Z,3.10
2022-10-17T16:12:04.353Z,3.33
2022-10-17T16:13:58.384Z,4.35
2022-10-17T16:15:49.132Z,3.30
2022-10-17T16:17:39.907Z,3.20
2022-10-17T16:19:30.617Z,3.30
2022-10-17T16:21:23.229Z,3.08
2022-10-17T16:23:14.338Z,3.28
2022-10-17T16:25:06.130Z,3.17
2022-10-17T16:26:56.692Z,3.38
2022-10-17T16:28:47.436Z,3.05
2022-10-17T16:30:42.702Z,2.55
2022-10-17T16:32:33.292Z,2.65
2022-10-17T16:34:24.120Z,2.72
2022-10-17T16:36:14.601Z,2.80
2022-10-17T16:38:05.352Z,2.53
2022-10-17T16:39:56.017Z,3.08
2022-10-17T16:41:46.396Z,3.22
2022-10-17T16:43:36.875Z,2.50
2022-10-17T16:45:27.315Z,3.03
2022-10-17T16:47:19.257Z,2.55
2022-10-17T16:49:10.332Z,2.40
2022-10-17T16:51:02.042Z,2.35
2022-10-17T16:52:52.865Z,3.00
2022-10-17T16:54:43.564Z,2.95
2022-10-17T16:56:33.967Z,2.22
2022-10-17T16:58:24.634Z,2.70
2022-10-17T17:00:16.277Z,2.60
2022-10-17T17:02:07.274Z,2.65
2022-10-17T17:03:59.102Z,3.85
2022-10-17T17:07:41.535Z,3.67
2022-10-17T17:09:31.845Z,3.17
2022-10-17T17:11:25.520Z,3.28
2022-10-17T17:13:16.003Z,3.30
2022-10-17T17:15:06.658Z,3.15
2022-10-17T17:16:57.238Z,4.85
2022-10-17T17:18:48.356Z,6.47
2022-10-17T17:20:40.109Z,6.40
2022-10-17T17:22:30.520Z,3.53
2022-10-17T17:24:21.572Z,4.03
2022-10-17T17:26:15.629Z,3.30
2022-10-17T17:28:06.715Z,3.17
2022-10-17T17:29:56.849Z,3.67
2022-10-17T17:31:47.351Z,3.40
2022-10-17T17:33:38.647Z,3.38
2022-10-17T17:35:29.392Z,3.40
2022-10-17T17:37:21.403Z,4.35
2022-10-17T17:39:13.744Z,4.00
2022-10-17T17:41:04.335Z,4.43
2022-10-17T17:42:55.095Z,4.45
2022-10-17T17:44:45.824Z,4.07
2022-10-17T17:46:36.391Z,3.60
2022-10-17T17:48:26.752Z,3.67
2022-10-17T17:50:16.948Z,3.95
2022-10-17T17:52:07.400Z,4.10
2022-10-17T17:53:59.668Z,4.10
2022-10-17T17:56:01.124Z,3.75
2022-10-17T17:57:52.577Z,3.13
2022-10-17T17:59:43.824Z,3.05
2022-10-17T18:01:35.223Z,3.03
2022-10-17T18:03:25.819Z,3.47
2022-10-17T18:05:16.842Z,3.50
2022-10-17T18:07:07.610Z,3.33
2022-10-17T18:08:59.617Z,4.60
2022-10-17T18:10:50.890Z,4.60
2022-10-17T18:12:41.347Z,3.67
2022-10-17T18:14:32.252Z,3.97
2022-10-17T18:16:22.857Z,3.78
2022-10-17T18:18:13.314Z,3.05
2022-10-17T18:20:05.475Z,3.85
2022-10-17T18:21:55.788Z,4.03
2022-10-17T18:23:47.994Z,3.60
2022-10-17T18:25:42.777Z,4.13
2022-10-17T18:27:33.033Z,4.43
2022-10-17T18:29:23.392Z,3.85
2022-10-17T18:31:16.052Z,4.40
2022-10-17T18:33:06.711Z,5.05
2022-10-17T18:34:57.069Z,3.95
2022-10-17T18:36:47.475Z,4.40
2022-10-17T18:38:38.178Z,4.50
2022-10-17T18:40:28.751Z,5.97
2022-10-17T18:42:20.773Z,4.53
2022-10-17T18:44:11.882Z,4.90
2022-10-17T18:46:04.286Z,5.22
2022-10-17T18:47:54.785Z,5.40
2022-10-17T18:49:45.414Z,5.22
2022-10-17T18:51:35.818Z,5.85
2022-10-17T18:53:26.307Z,5.55
2022-10-17T18:55:17.371Z,6.63
2022-10-17T18:57:08.105Z,5.78
2022-10-17T18:58:59.904Z,6.00
2022-10-17T19:00:51.125Z,5.57
2022-10-17T19:02:41.685Z,5.97
2022-10-17T19:04:32.152Z,5.70
2022-10-17T19:06:24.811Z,6.45
2022-10-17T19:08:15.721Z,6.18
2022-10-17T19:10:07.166Z,6.25
2022-10-17T19:12:01.564Z,6.25
2022-10-17T19:13:52.838Z,6.13
2022-10-17T19:15:44.742Z,5.40
2022-10-17T19:17:35.232Z,5.78
2022-10-17T19:19:26.106Z,6.25
2022-10-17T19:21:21.543Z,5.93
2022-10-17T19:23:12.611Z,7.80
2022-10-17T19:25:05.159Z,6.68
2022-10-17T19:26:59.403Z,7.53
2022-10-17T19:28:52.083Z,6.40
2022-10-17T19:32:34.562Z,7.47
2022-10-17T19:34:25.209Z,7.22
2022-10-17T19:36:16.016Z,7.03
2022-10-17T19:38:06.613Z,7.57
2022-10-17T19:39:57.671Z,8.40
2022-10-17T19:41:48.882Z,7.35
2022-10-17T19:43:40.370Z,7.28
2022-10-17T19:45:30.871Z,8.15
2022-10-17T19:47:22.917Z,8.65
2022-10-17T19:49:13.902Z,7.50
2022-10-17T19:51:05.123Z,9.82
2022-10-17T19:52:57.913Z,10.90
2022-10-17T19:54:48.528Z,10.35
2022-10-17T19:56:40.287Z,9.40
2022-10-17T19:58:32.841Z,8.88
2022-10-17T20:00:24.847Z,8.00
2022-10-17T20:02:15.503Z,8.60
2022-10-17T20:04:08.215Z,8.85
2022-10-17T20:05:58.866Z,8.00
2022-10-17T20:07:52.136Z,9.05
2022-10-17T20:09:44.237Z,10.07
2022-10-17T20:11:38.122Z,10.50
2022-10-17T20:13:28.524Z,9.68
2022-10-17T20:15:18.775Z,10.40
2022-10-17T20:17:08.979Z,9.57
2022-10-17T20:19:04.657Z,10.00
2022-10-17T20:21:01.483Z,9.52
2022-10-17T20:22:51.931Z,8.63
2022-10-17T20:24:45.218Z,8.52
2022-10-17T20:26:38.634Z,9.65
2022-10-17T20:28:29.961Z,7.95
2022-10-17T20:30:23.370Z,8.23
2022-10-17T20:32:13.744Z,9.70
2022-10-17T20:34:07.406Z,8.70
2022-10-17T20:36:04.480Z,9.35
2022-10-17T20:37:54.949Z,8.48
2022-10-17T20:39:45.560Z,8.35
2022-10-17T20:41:36.036Z,9.35
2022-10-17T20:43:27.721Z,8.85
2022-10-17T20:45:37.293Z,10.13
2022-10-17T20:47:46.091Z,10.45
2022-10-17T20:49:38.757Z,9.73
2022-10-17T20:51:33.137Z,9.88
2022-10-17T20:53:37.953Z,10.18
2022-10-17T20:55:30.801Z,11.18
2022-10-17T20:57:21.185Z,8.70
2022-10-17T20:59:13.241Z,9.25
2022-10-17T21:01:07.325Z,9.50
2022-10-17T21:02:57.880Z,9.05
2022-10-17T21:04:48.823Z,8.52
2022-10-17T21:06:40.938Z,8.90
2022-10-17T21:08:31.690Z,9.13
2022-10-17T21:10:35.098Z,9.00
2022-10-17T21:12:31.357Z,9.68
2022-10-17T21:14:33.396Z,11.25
2022-10-17T21:16:24.532Z,11.00
2022-10-17T21:18:15.001Z,10.88
2022-10-17T21:20:07.009Z,10.55
2022-10-17T21:21:59.016Z,9.25
2022-10-17T21:23:50.696Z,10.90
2022-10-17T21:25:41.216Z,10.93
2022-10-17T21:27:31.517Z,9.45
2022-10-17T21:29:23.242Z,9.07
2022-10-17T21:31:15.885Z,8.25
2022-10-17T21:33:06.629Z,10.30
2022-10-17T21:34:57.473Z,9.15
2022-10-17T21:36:48.372Z,11.80
2022-10-17T21:38:40.738Z,8.93
2022-10-17T21:40:31.035Z,10.73
2022-10-17T21:42:21.485Z,10.13
2022-10-17T21:44:15.048Z,8.60
2022-10-17T21:46:07.699Z,8.98
2022-10-17T21:48:13.746Z,9.15
2022-10-17T21:50:05.207Z,9.90
2022-10-17T21:51:55.863Z,9.50
2022-10-17T21:53:47.697Z,9.50
2022-10-17T21:55:38.016Z,9.93
2022-10-17T21:57:28.651Z,8.82
2022-10-17T21:59:18.989Z,8.68
2022-10-17T22:01:11.680Z,9.75
2022-10-17T22:03:02.671Z,9.98
2022-10-17T22:04:53.418Z,10.05
2022-10-17T22:06:45.668Z,9.10
2022-10-17T22:08:36.693Z,9.73
2022-10-17T22:10:28.447Z,9.30
2022-10-17T22:12:18.805Z,9.63
2022-10-17T22:14:12.342Z,9.00
2022-10-17T22:16:04.901Z,8.65
2022-10-17T22:17:55.599Z,8.68
2022-10-17T22:19:46.310Z,8.30
2022-10-17T22:21:36.976Z,9.43
2022-10-17T22:23:27.617Z,8.52
2022-10-17T22:25:18.162Z,9.10
2022-10-17T22:27:09.971Z,9.98
2022-10-17T22:29:01.190Z,8.57
2022-10-17T22:30:52.815Z,9.80
2022-10-17T22:32:43.557Z,10.32
2022-10-17T22:34:34.509Z,8.75
2022-10-17T22:36:25.665Z,9.73
2022-10-17T22:38:16.838Z,9.25
2022-10-17T22:40:08.130Z,10.88
2022-10-17T22:41:58.506Z,9.35
2022-10-17T22:43:50.496Z,9.18
2022-10-17T22:45:41.286Z,9.32
2022-10-17T22:47:32.038Z,8.75
2022-10-17T22:49:22.916Z,9.85
2022-10-17T22:51:13.327Z,8.70
2022-10-17T22:53:04.026Z,8.95
2022-10-17T22:54:54.399Z,11.10
2022-10-17T22:56:44.928Z,10.23
2022-10-17T22:58:35.945Z,9.02
2022-10-17T23:02:19.161Z,9.02
2022-10-17T23:04:09.867Z,9.45
2022-10-17T23:06:00.904Z,8.75
2022-10-17T23:07:51.571Z,9.77
2022-10-17T23:09:42.156Z,10.13
2022-10-17T23:11:32.800Z,10.82
2022-10-17T23:13:23.387Z,10.85
2022-10-17T23:15:13.650Z,11.40
2022-10-17T23:17:05.520Z,9.70
2022-10-17T23:18:57.406Z,10.30
2022-10-17T23:20:48.360Z,10.90
2022-10-17T23:22:38.712Z,10.68
2022-10-17T23:24:29.532Z,9.45
2022-10-17T23:26:20.129Z,9.70
2022-10-17T23:28:11.166Z,9.25
2022-10-17T23:30:02.183Z,9.98
2022-10-17T23:31:54.554Z,9.88
2022-10-17T23:33:48.018Z,9.45
2022-10-17T23:35:38.477Z,10.50
2022-10-17T23:37:29.387Z,10.32
2022-10-17T23:39:20.540Z,10.40
2022-10-17T23:41:11.609Z,9.40
2022-10-17T23:43:02.454Z,9.88
2022-10-17T23:44:53.352Z,9.85
2022-10-17T23:46:43.617Z,9.10
2022-10-17T23:48:34.165Z,8.57
2022-10-17T23:50:26.250Z,10.60
2022-10-17T23:52:16.658Z,11.50
2022-10-17T23:54:06.815Z,9.77
2022-10-17T23:55:57.326Z,11.10
2022-10-17T23:57:47.883Z,10.60
2022-10-17T23:59:38.353Z,9.32
